sensor_id;sensor_type;location;lat;lon;timestamp;pressure;altitude;pressure_sealevel;temperature;humidity
35647;BME280;28680;45.642;13.756;2023-03-13T00:01:22;101528.75;;;10.03;100.00
35647;BME280;28680;45.642;13.756;2023-03-13T00:03:49;101535.50;;;9.93;100.00
35647;BME280;28680;45.642;13.756;2023-03-13T00:06:16;101539.38;;;9.87;100.00
35647;BME280;28680;45.642;13.756;2023-03-13T00:08:42;101540.28;;;9.86;100.00
35647;BME280;28680;45.642;13.756;2023-03-13T00:11:11;101540.94;;;9.90;100.00
35647;BME280;28680;45.642;13.756;2023-03-13T00:13:38;101542.06;;;9.86;100.00
35647;BME280;28680;45.642;13.756;2023-03-13T00:16:11;101545.16;;;9.92;100.00
35647;BME280;28680;45.642;13.756;2023-03-13T00:18:37;101547.31;;;9.86;100.00
35647;BME280;28680;45.642;13.756;2023-03-13T00:21:08;101544.22;;;9.93;100.00
35647;BME280;28680;45.642;13.756;2023-03-13T00:23:36;101543.81;;;10.00;100.00
35647;BME280;28680;45.642;13.756;2023-03-13T00:26:08;101550.94;;;9.98;100.00
35647;BME280;28680;45.642;13.756;2023-03-13T00:28:37;101551.91;;;9.97;100.00
35647;BME280;28680;45.642;13.756;2023-03-13T00:31:18;101551.16;;;9.94;100.00
35647;BME280;28680;45.642;13.756;2023-03-13T00:33:47;101545.75;;;9.83;100.00
35647;BME280;28680;45.642;13.756;2023-03-13T00:36:17;101550.41;;;9.78;100.00
35647;BME280;28680;45.642;13.756;2023-03-13T00:38:44;101552.75;;;9.83;100.00
35647;BME280;28680;45.642;13.756;2023-03-13T00:41:13;101547.72;;;9.80;100.00
35647;BME280;28680;45.642;13.756;2023-03-13T00:43:41;101544.03;;;9.82;100.00
35647;BME280;28680;45.642;13.756;2023-03-13T00:46:08;101539.94;;;9.78;100.00
35647;BME280;28680;45.642;13.756;2023-03-13T00:48:34;101542.47;;;9.65;100.00
35647;BME280;28680;45.642;13.756;2023-03-13T00:51:02;101540.31;;;9.57;100.00
35647;BME280;28680;45.642;13.756;2023-03-13T00:53:28;101539.84;;;9.65;100.00
35647;BME280;28680;45.642;13.756;2023-03-13T00:56:04;101540.69;;;9.66;100.00
35647;BME280;28680;45.642;13.756;2023-03-13T00:58:37;101546.31;;;9.74;100.00
35647;BME280;28680;45.642;13.756;2023-03-13T01:01:27;101539.56;;;9.70;100.00
35647;BME280;28680;45.642;13.756;2023-03-13T01:03:56;101538.19;;;9.64;100.00
35647;BME280;28680;45.642;13.756;2023-03-13T01:06:26;101540.13;;;9.61;100.00
35647;BME280;28680;45.642;13.756;2023-03-13T01:08:53;101538.00;;;9.53;100.00
35647;BME280;28680;45.642;13.756;2023-03-13T01:11:22;101534.69;;;9.64;100.00
35647;BME280;28680;45.642;13.756;2023-03-13T01:13:53;101540.50;;;9.54;100.00
35647;BME280;28680;45.642;13.756;2023-03-13T01:16:20;101529.00;;;9.57;100.00
35647;BME280;28680;45.642;13.756;2023-03-13T01:19:11;101531.53;;;9.44;100.00
35647;BME280;28680;45.642;13.756;2023-03-13T01:21:38;101531.25;;;9.34;100.00
35647;BME280;28680;45.642;13.756;2023-03-13T01:24:04;101524.59;;;9.43;100.00
35647;BME280;28680;45.642;13.756;2023-03-13T01:26:30;101522.09;;;9.42;100.00
35647;BME280;28680;45.642;13.756;2023-03-13T01:28:57;101521.03;;;9.44;100.00
35647;BME280;28680;45.642;13.756;2023-03-13T01:31:26;101519.63;;;9.39;100.00
35647;BME280;28680;45.642;13.756;2023-03-13T01:33:59;101520.28;;;9.28;100.00
35647;BME280;28680;45.642;13.756;2023-03-13T01:36:27;101522.16;;;9.26;100.00
35647;BME280;28680;45.642;13.756;2023-03-13T01:38:56;101518.78;;;9.24;100.00
35647;BME280;28680;45.642;13.756;2023-03-13T01:41:23;101518.22;;;9.33;100.00
35647;BME280;28680;45.642;13.756;2023-03-13T01:43:50;101523.38;;;9.34;100.00
35647;BME280;28680;45.642;13.756;2023-03-13T01:46:21;101533.22;;;9.45;100.00
35647;BME280;28680;45.642;13.756;2023-03-13T01:49:26;101529.00;;;9.43;100.00
35647;BME280;28680;45.642;13.756;2023-03-13T01:52:16;101523.09;;;9.39;100.00
35647;BME280;28680;45.642;13.756;2023-03-13T01:55:09;101532.09;;;9.49;100.00
35647;BME280;28680;45.642;13.756;2023-03-13T01:57:43;101524.41;;;9.46;100.00
35647;BME280;28680;45.642;13.756;2023-03-13T02:00:21;101526.38;;;9.43;100.00
35647;BME280;28680;45.642;13.756;2023-03-13T02:02:54;101525.06;;;9.50;100.00
35647;BME280;28680;45.642;13.756;2023-03-13T02:05:24;101526.19;;;9.31;100.00
35647;BME280;28680;45.642;13.756;2023-03-13T02:08:00;101523.94;;;9.25;100.00
35647;BME280;28680;45.642;13.756;2023-03-13T02:10:29;101522.03;;;9.13;100.00
35647;BME280;28680;45.642;13.756;2023-03-13T02:12:56;101513.53;;;9.09;100.00
35647;BME280;28680;45.642;13.756;2023-03-13T02:15:27;101518.78;;;9.09;100.00
35647;BME280;28680;45.642;13.756;2023-03-13T02:17:55;101518.78;;;9.09;100.00
35647;BME280;28680;45.642;13.756;2023-03-13T02:20:21;101510.06;;;9.09;100.00
35647;BME280;28680;45.642;13.756;2023-03-13T02:23:11;101509.16;;;9.10;100.00
35647;BME280;28680;45.642;13.756;2023-03-13T02:25:41;101508.41;;;9.08;100.00
35647;BME280;28680;45.642;13.756;2023-03-13T02:28:49;101505.69;;;9.09;100.00
35647;BME280;28680;45.642;13.756;2023-03-13T02:31:18;101495.66;;;9.16;100.00
35647;BME280;28680;45.642;13.756;2023-03-13T02:33:44;101489.22;;;9.22;100.00
35647;BME280;28680;45.642;13.756;2023-03-13T02:36:12;101484.16;;;9.18;100.00
35647;BME280;28680;45.642;13.756;2023-03-13T02:38:57;101486.69;;;9.20;100.00
35647;BME280;28680;45.642;13.756;2023-03-13T02:41:27;101475.28;;;9.21;100.00
35647;BME280;28680;45.642;13.756;2023-03-13T02:43:53;101482.94;;;9.24;100.00
35647;BME280;28680;45.642;13.756;2023-03-13T02:46:20;101475.75;;;9.28;100.00
35647;BME280;28680;45.642;13.756;2023-03-13T02:48:54;101468.34;;;9.20;100.00
35647;BME280;28680;45.642;13.756;2023-03-13T02:51:47;101454.44;;;9.20;100.00
35647;BME280;28680;45.642;13.756;2023-03-13T02:54:43;101459.75;;;9.32;100.00
35647;BME280;28680;45.642;13.756;2023-03-13T02:57:10;101460.69;;;9.31;100.00
35647;BME280;28680;45.642;13.756;2023-03-13T02:59:36;101449.94;;;9.36;100.00
35647;BME280;28680;45.642;13.756;2023-03-13T03:02:03;101452.66;;;9.34;100.00
35647;BME280;28680;45.642;13.756;2023-03-13T03:04:29;101465.19;;;9.29;100.00
35647;BME280;28680;45.642;13.756;2023-03-13T03:06:55;101447.50;;;9.33;100.00
35647;BME280;28680;45.642;13.756;2023-03-13T03:09:22;101457.72;;;9.38;100.00
35647;BME280;28680;45.642;13.756;2023-03-13T03:11:48;101454.03;;;9.40;100.00
35647;BME280;28680;45.642;13.756;2023-03-13T03:14:15;101453.75;;;9.45;100.00
35647;BME280;28680;45.642;13.756;2023-03-13T03:16:41;101457.09;;;9.47;100.00
35647;BME280;28680;45.642;13.756;2023-03-13T03:19:07;101451.78;;;9.48;100.00
35647;BME280;28680;45.642;13.756;2023-03-13T03:21:34;101450.13;;;9.47;100.00
35647;BME280;28680;45.642;13.756;2023-03-13T03:24:01;101445.72;;;9.48;100.00
35647;BME280;28680;45.642;13.756;2023-03-13T03:26:27;101445.97;;;9.43;100.00
35647;BME280;28680;45.642;13.756;2023-03-13T03:28:53;101448.34;;;9.33;100.00
35647;BME280;28680;45.642;13.756;2023-03-13T03:31:19;101447.41;;;9.34;100.00
35647;BME280;28680;45.642;13.756;2023-03-13T03:33:45;101459.03;;;9.30;100.00
35647;BME280;28680;45.642;13.756;2023-03-13T03:36:15;101464.91;;;9.34;100.00
35647;BME280;28680;45.642;13.756;2023-03-13T03:38:44;101466.66;;;9.33;100.00
35647;BME280;28680;45.642;13.756;2023-03-13T03:41:12;101458.94;;;9.32;100.00
35647;BME280;28680;45.642;13.756;2023-03-13T03:43:42;101463.50;;;9.28;100.00
35647;BME280;28680;45.642;13.756;2023-03-13T03:46:08;101474.66;;;9.32;100.00
35647;BME280;28680;45.642;13.756;2023-03-13T03:48:35;101466.34;;;9.67;100.00
35647;BME280;28680;45.642;13.756;2023-03-13T03:51:02;101474.25;;;9.38;100.00
35647;BME280;28680;45.642;13.756;2023-03-13T03:53:34;101479.19;;;9.43;100.00
35647;BME280;28680;45.642;13.756;2023-03-13T03:56:00;101478.09;;;9.32;100.00
35647;BME280;28680;45.642;13.756;2023-03-13T03:58:26;101468.72;;;9.43;100.00
35647;BME280;28680;45.642;13.756;2023-03-13T04:00:52;101476.88;;;9.38;100.00
35647;BME280;28680;45.642;13.756;2023-03-13T04:03:20;101469.03;;;9.38;100.00
35647;BME280;28680;45.642;13.756;2023-03-13T04:05:46;101461.81;;;9.42;100.00
35647;BME280;28680;45.642;13.756;2023-03-13T04:08:17;101470.22;;;9.47;100.00
35647;BME280;28680;45.642;13.756;2023-03-13T04:10:43;101462.75;;;9.41;100.00
35647;BME280;28680;45.642;13.756;2023-03-13T04:13:09;101469.75;;;9.40;100.00
35647;BME280;28680;45.642;13.756;2023-03-13T04:15:38;101471.34;;;9.43;100.00
35647;BME280;28680;45.642;13.756;2023-03-13T04:18:04;101467.72;;;9.45;100.00
35647;BME280;28680;45.642;13.756;2023-03-13T04:20:30;101469.94;;;9.37;100.00
35647;BME280;28680;45.642;13.756;2023-03-13T04:22:56;101476.31;;;9.33;100.00
35647;BME280;28680;45.642;13.756;2023-03-13T04:25:22;101483.25;;;9.34;100.00
35647;BME280;28680;45.642;13.756;2023-03-13T04:27:48;101491.94;;;9.34;100.00
35647;BME280;28680;45.642;13.756;2023-03-13T04:30:14;101495.22;;;9.38;100.00
35647;BME280;28680;45.642;13.756;2023-03-13T04:32:40;101501.13;;;9.42;100.00
35647;BME280;28680;45.642;13.756;2023-03-13T04:35:06;101498.28;;;9.45;100.00
35647;BME280;28680;45.642;13.756;2023-03-13T04:37:32;101511.03;;;9.51;100.00
35647;BME280;28680;45.642;13.756;2023-03-13T04:39:58;101497.63;;;9.55;100.00
35647;BME280;28680;45.642;13.756;2023-03-13T04:42:24;101496.41;;;9.61;100.00
35647;BME280;28680;45.642;13.756;2023-03-13T04:44:50;101508.88;;;9.57;100.00
35647;BME280;28680;45.642;13.756;2023-03-13T04:47:16;101513.84;;;9.62;100.00
35647;BME280;28680;45.642;13.756;2023-03-13T04:49:42;101509.63;;;9.60;100.00
35647;BME280;28680;45.642;13.756;2023-03-13T04:52:08;101510.34;;;9.62;100.00
35647;BME280;28680;45.642;13.756;2023-03-13T04:54:33;101503.63;;;9.57;100.00
35647;BME280;28680;45.642;13.756;2023-03-13T04:56:59;101500.34;;;9.54;100.00
35647;BME280;28680;45.642;13.756;2023-03-13T04:59:25;101502.22;;;9.52;100.00
35647;BME280;28680;45.642;13.756;2023-03-13T05:01:51;101493.44;;;9.53;100.00
35647;BME280;28680;45.642;13.756;2023-03-13T05:04:17;101500.06;;;9.44;100.00
35647;BME280;28680;45.642;13.756;2023-03-13T05:06:42;101499.72;;;9.36;100.00
35647;BME280;28680;45.642;13.756;2023-03-13T05:09:08;101499.88;;;9.33;100.00
35647;BME280;28680;45.642;13.756;2023-03-13T05:11:40;101502.81;;;9.28;100.00
35647;BME280;28680;45.642;13.756;2023-03-13T05:14:10;101507.09;;;9.29;100.00
35647;BME280;28680;45.642;13.756;2023-03-13T05:16:38;101506.16;;;9.30;100.00
35647;BME280;28680;45.642;13.756;2023-03-13T05:19:09;101515.53;;;9.34;100.00
35647;BME280;28680;45.642;13.756;2023-03-13T05:21:35;101520.69;;;9.36;100.00
35647;BME280;28680;45.642;13.756;2023-03-13T05:24:05;101527.13;;;9.30;100.00
35647;BME280;28680;45.642;13.756;2023-03-13T05:26:31;101523.56;;;9.31;100.00
35647;BME280;28680;45.642;13.756;2023-03-13T05:28:56;101520.00;;;9.32;100.00
35647;BME280;28680;45.642;13.756;2023-03-13T05:31:22;101509.44;;;9.34;100.00
35647;BME280;28680;45.642;13.756;2023-03-13T05:33:48;101510.94;;;9.38;100.00
35647;BME280;28680;45.642;13.756;2023-03-13T05:36:14;101512.06;;;9.34;100.00
35647;BME280;28680;45.642;13.756;2023-03-13T05:38:40;101518.16;;;9.34;100.00
35647;BME280;28680;45.642;13.756;2023-03-13T05:41:06;101512.72;;;9.38;100.00
35647;BME280;28680;45.642;13.756;2023-03-13T05:43:31;101518.81;;;9.38;100.00
35647;BME280;28680;45.642;13.756;2023-03-13T05:45:57;101512.59;;;9.39;100.00
35647;BME280;28680;45.642;13.756;2023-03-13T05:48:23;101514.22;;;9.42;100.00
35647;BME280;28680;45.642;13.756;2023-03-13T05:50:49;101513.75;;;9.49;100.00
35647;BME280;28680;45.642;13.756;2023-03-13T05:53:15;101522.34;;;9.51;100.00
35647;BME280;28680;45.642;13.756;2023-03-13T05:55:41;101528.16;;;9.56;100.00
35647;BME280;28680;45.642;13.756;2023-03-13T05:58:07;101526.66;;;9.52;100.00
35647;BME280;28680;45.642;13.756;2023-03-13T06:00:33;101526.47;;;9.55;100.00
35647;BME280;28680;45.642;13.756;2023-03-13T06:03:00;101523.56;;;9.60;100.00
35647;BME280;28680;45.642;13.756;2023-03-13T06:05:26;101522.44;;;9.64;100.00
35647;BME280;28680;45.642;13.756;2023-03-13T06:07:52;101536.31;;;9.66;100.00
35647;BME280;28680;45.642;13.756;2023-03-13T06:10:18;101539.94;;;9.64;100.00
35647;BME280;28680;45.642;13.756;2023-03-13T06:12:44;101539.94;;;9.64;100.00
35647;BME280;28680;45.642;13.756;2023-03-13T06:15:22;101533.75;;;9.65;100.00
35647;BME280;28680;45.642;13.756;2023-03-13T06:17:48;101531.22;;;9.63;100.00
35647;BME280;28680;45.642;13.756;2023-03-13T06:20:17;101531.06;;;9.66;100.00
35647;BME280;28680;45.642;13.756;2023-03-13T06:22:43;101523.66;;;9.59;100.00
35647;BME280;28680;45.642;13.756;2023-03-13T06:25:11;101530.84;;;9.69;100.00
35647;BME280;28680;45.642;13.756;2023-03-13T06:27:36;101536.75;;;9.73;100.00
35647;BME280;28680;45.642;13.756;2023-03-13T06:30:03;101534.03;;;9.89;100.00
35647;BME280;28680;45.642;13.756;2023-03-13T06:32:29;101544.03;;;9.97;100.00
35647;BME280;28680;45.642;13.756;2023-03-13T06:34:55;101544.56;;;10.02;100.00
35647;BME280;28680;45.642;13.756;2023-03-13T06:37:21;101547.97;;;10.04;100.00
35647;BME280;28680;45.642;13.756;2023-03-13T06:39:47;101552.91;;;10.08;100.00
35647;BME280;28680;45.642;13.756;2023-03-13T06:42:12;101545.47;;;10.15;100.00
35647;BME280;28680;45.642;13.756;2023-03-13T06:44:38;101546.97;;;10.19;100.00
35647;BME280;28680;45.642;13.756;2023-03-13T06:47:06;101550.63;;;10.17;100.00
35647;BME280;28680;45.642;13.756;2023-03-13T06:49:32;101557.47;;;10.19;100.00
35647;BME280;28680;45.642;13.756;2023-03-13T06:51:58;101565.53;;;10.30;100.00
35647;BME280;28680;45.642;13.756;2023-03-13T06:54:23;101568.19;;;10.43;100.00
35647;BME280;28680;45.642;13.756;2023-03-13T06:56:50;101573.59;;;10.54;100.00
35647;BME280;28680;45.642;13.756;2023-03-13T06:59:16;101580.88;;;10.64;100.00
35647;BME280;28680;45.642;13.756;2023-03-13T07:01:44;101586.03;;;10.65;100.00
35647;BME280;28680;45.642;13.756;2023-03-13T07:04:12;101580.28;;;10.73;100.00
35647;BME280;28680;45.642;13.756;2023-03-13T07:06:47;101584.25;;;10.66;100.00
35647;BME280;28680;45.642;13.756;2023-03-13T07:09:13;101587.91;;;10.63;100.00
35647;BME280;28680;45.642;13.756;2023-03-13T07:11:39;101591.97;;;10.54;100.00
35647;BME280;28680;45.642;13.756;2023-03-13T07:14:05;101591.34;;;10.51;100.00
35647;BME280;28680;45.642;13.756;2023-03-13T07:16:30;101589.56;;;10.51;100.00
35647;BME280;28680;45.642;13.756;2023-03-13T07:18:56;101588.09;;;10.60;100.00
35647;BME280;28680;45.642;13.756;2023-03-13T07:21:22;101588.00;;;10.62;100.00
35647;BME280;28680;45.642;13.756;2023-03-13T07:23:51;101592.34;;;10.63;100.00
35647;BME280;28680;45.642;13.756;2023-03-13T07:26:20;101593.50;;;10.71;100.00
35647;BME280;28680;45.642;13.756;2023-03-13T07:28:46;101592.16;;;10.79;100.00
35647;BME280;28680;45.642;13.756;2023-03-13T07:31:14;101588.38;;;10.83;100.00
35647;BME280;28680;45.642;13.756;2023-03-13T07:33:46;101580.88;;;10.91;100.00
35647;BME280;28680;45.642;13.756;2023-03-13T07:36:14;101575.50;;;11.05;100.00
35647;BME280;28680;45.642;13.756;2023-03-13T07:38:40;101576.59;;;11.16;100.00
35647;BME280;28680;45.642;13.756;2023-03-13T07:41:11;101581.84;;;11.16;100.00
35647;BME280;28680;45.642;13.756;2023-03-13T07:43:38;101573.09;;;11.15;100.00
35647;BME280;28680;45.642;13.756;2023-03-13T07:46:06;101569.56;;;11.29;100.00
35647;BME280;28680;45.642;13.756;2023-03-13T07:48:39;101577.84;;;11.36;100.00
35647;BME280;28680;45.642;13.756;2023-03-13T07:51:16;101576.50;;;11.56;100.00
35647;BME280;28680;45.642;13.756;2023-03-13T07:53:43;101576.69;;;11.78;100.00
35647;BME280;28680;45.642;13.756;2023-03-13T07:56:11;101580.34;;;12.01;100.00
35647;BME280;28680;45.642;13.756;2023-03-13T07:58:39;101573.88;;;12.18;100.00
35647;BME280;28680;45.642;13.756;2023-03-13T08:01:21;101569.94;;;12.37;100.00
35647;BME280;28680;45.642;13.756;2023-03-13T08:03:51;101575.41;;;12.58;100.00
35647;BME280;28680;45.642;13.756;2023-03-13T08:06:23;101575.13;;;12.74;100.00
35647;BME280;28680;45.642;13.756;2023-03-13T08:08:50;101572.53;;;12.85;100.00
35647;BME280;28680;45.642;13.756;2023-03-13T08:11:25;101566.84;;;13.02;100.00
35647;BME280;28680;45.642;13.756;2023-03-13T08:13:51;101578.38;;;13.24;100.00
35647;BME280;28680;45.642;13.756;2023-03-13T08:16:20;101570.03;;;13.30;100.00
35647;BME280;28680;45.642;13.756;2023-03-13T08:18:50;101559.50;;;13.41;100.00
35647;BME280;28680;45.642;13.756;2023-03-13T08:21:20;101561.31;;;13.75;100.00
35647;BME280;28680;45.642;13.756;2023-03-13T08:23:47;101568.31;;;14.19;100.00
35647;BME280;28680;45.642;13.756;2023-03-13T08:26:19;101561.94;;;14.33;100.00
35647;BME280;28680;45.642;13.756;2023-03-13T08:28:50;101562.25;;;14.40;100.00
35647;BME280;28680;45.642;13.756;2023-03-13T08:31:23;101563.16;;;14.29;100.00
35647;BME280;28680;45.642;13.756;2023-03-13T08:33:50;101556.22;;;14.60;100.00
35647;BME280;28680;45.642;13.756;2023-03-13T08:36:25;101561.59;;;14.91;100.00
35647;BME280;28680;45.642;13.756;2023-03-13T08:38:53;101560.56;;;15.25;100.00
35647;BME280;28680;45.642;13.756;2023-03-13T08:41:26;101550.94;;;15.45;100.00
35647;BME280;28680;45.642;13.756;2023-03-13T08:43:56;101547.09;;;15.58;100.00
35647;BME280;28680;45.642;13.756;2023-03-13T08:46:23;101547.34;;;15.76;100.00
35647;BME280;28680;45.642;13.756;2023-03-13T08:48:53;101535.97;;;16.05;100.00
35647;BME280;28680;45.642;13.756;2023-03-13T08:51:22;101529.31;;;16.11;100.00
35647;BME280;28680;45.642;13.756;2023-03-13T08:53:48;101522.88;;;16.13;100.00
35647;BME280;28680;45.642;13.756;2023-03-13T08:56:17;101530.72;;;16.34;100.00
35647;BME280;28680;45.642;13.756;2023-03-13T08:58:47;101522.78;;;16.64;100.00
35647;BME280;28680;45.642;13.756;2023-03-13T09:01:14;101525.53;;;16.82;100.00
35647;BME280;28680;45.642;13.756;2023-03-13T09:03:40;101531.53;;;16.93;100.00
35647;BME280;28680;45.642;13.756;2023-03-13T09:06:07;101520.03;;;17.22;100.00
35647;BME280;28680;45.642;13.756;2023-03-13T09:08:34;101525.13;;;17.43;100.00
35647;BME280;28680;45.642;13.756;2023-03-13T09:11:12;101521.34;;;17.73;100.00
35647;BME280;28680;45.642;13.756;2023-03-13T09:13:42;101517.63;;;17.94;100.00
35647;BME280;28680;45.642;13.756;2023-03-13T09:16:17;101517.84;;;18.01;100.00
35647;BME280;28680;45.642;13.756;2023-03-13T09:18:44;101517.56;;;18.04;100.00
35647;BME280;28680;45.642;13.756;2023-03-13T09:21:27;101517.94;;;18.09;100.00
35647;BME280;28680;45.642;13.756;2023-03-13T09:23:54;101517.28;;;18.25;100.00
35647;BME280;28680;45.642;13.756;2023-03-13T09:26:20;101510.44;;;18.22;100.00
35647;BME280;28680;45.642;13.756;2023-03-13T09:28:47;101510.13;;;18.07;100.00
35647;BME280;28680;45.642;13.756;2023-03-13T09:31:25;101511.09;;;17.88;100.00
35647;BME280;28680;45.642;13.756;2023-03-13T09:33:52;101511.03;;;17.98;100.00
35647;BME280;28680;45.642;13.756;2023-03-13T09:36:20;101511.91;;;18.17;100.00
35647;BME280;28680;45.642;13.756;2023-03-13T09:38:57;101513.09;;;18.40;100.00
35647;BME280;28680;45.642;13.756;2023-03-13T09:41:31;101506.31;;;18.64;100.00
35647;BME280;28680;45.642;13.756;2023-03-13T09:46:38;101497.50;;;18.81;100.00
35647;BME280;28680;45.642;13.756;2023-03-13T09:50:13;101493.38;;;18.87;100.00
35647;BME280;28680;45.642;13.756;2023-03-13T09:52:40;101500.97;;;19.00;100.00
35647;BME280;28680;45.642;13.756;2023-03-13T09:55:21;101506.34;;;19.16;100.00
35647;BME280;28680;45.642;13.756;2023-03-13T09:58:23;101490.09;;;19.27;100.00
35647;BME280;28680;45.642;13.756;2023-03-13T10:01:01;101482.06;;;19.45;100.00
35647;BME280;28680;45.642;13.756;2023-03-13T10:06:18;101488.59;;;19.59;100.00
35647;BME280;28680;45.642;13.756;2023-03-13T10:08:44;101483.94;;;19.70;100.00
35647;BME280;28680;45.642;13.756;2023-03-13T10:11:24;101487.50;;;19.78;100.00
35647;BME280;28680;45.642;13.756;2023-03-13T10:14:16;101492.84;;;19.78;100.00
35647;BME280;28680;45.642;13.756;2023-03-13T10:19:22;101487.72;;;20.01;100.00
35647;BME280;28680;45.642;13.756;2023-03-13T10:21:53;101472.44;;;20.12;100.00
35647;BME280;28680;45.642;13.756;2023-03-13T10:27:00;101479.06;;;19.99;100.00
35647;BME280;28680;45.642;13.756;2023-03-13T10:29:29;101484.91;;;20.03;100.00
35647;BME280;28680;45.642;13.756;2023-03-13T10:32:03;101473.59;;;20.17;100.00
35647;BME280;28680;45.642;13.756;2023-03-13T10:34:52;101467.09;;;20.36;100.00
35647;BME280;28680;45.642;13.756;2023-03-13T10:37:41;101468.41;;;20.49;100.00
35647;BME280;28680;45.642;13.756;2023-03-13T10:40:23;101471.13;;;20.32;100.00
35647;BME280;28680;45.642;13.756;2023-03-13T10:42:52;101469.28;;;20.33;100.00
35647;BME280;28680;45.642;13.756;2023-03-13T10:45:22;101472.09;;;20.31;100.00
35647;BME280;28680;45.642;13.756;2023-03-13T10:47:56;101466.28;;;20.44;100.00
35647;BME280;28680;45.642;13.756;2023-03-13T10:50:27;101461.63;;;20.38;100.00
35647;BME280;28680;45.642;13.756;2023-03-13T10:52:57;101468.97;;;20.60;100.00
35647;BME280;28680;45.642;13.756;2023-03-13T10:55:24;101461.75;;;20.86;100.00
35647;BME280;28680;45.642;13.756;2023-03-13T10:58:03;101460.03;;;21.01;100.00
35647;BME280;28680;45.642;13.756;2023-03-13T12:07:14;101434.88;;;22.73;54.20
35647;BME280;28680;45.642;13.756;2023-03-13T12:10:33;101426.97;;;22.80;59.25
35647;BME280;28680;45.642;13.756;2023-03-13T12:13:11;101421.03;;;23.00;48.08
35647;BME280;28680;45.642;13.756;2023-03-13T12:15:45;101404.81;;;23.01;48.56
35647;BME280;28680;45.642;13.756;2023-03-13T12:26:34;101405.66;;;23.16;52.39
35647;BME280;28680;45.642;13.756;2023-03-13T12:31:53;101391.78;;;22.68;53.29
35647;BME280;28680;45.642;13.756;2023-03-13T12:34:38;101389.94;;;22.54;56.85
35647;BME280;28680;45.642;13.756;2023-03-13T12:37:20;101391.06;;;22.74;64.24
35647;BME280;28680;45.642;13.756;2023-03-13T12:43:20;101396.84;;;22.93;70.09
35647;BME280;28680;45.642;13.756;2023-03-13T12:59:39;101353.50;;;22.00;49.26
35647;BME280;28680;45.642;13.756;2023-03-13T13:02:26;101350.94;;;22.07;46.75
35647;BME280;28680;45.642;13.756;2023-03-13T13:04:56;101350.22;;;22.13;44.02
35647;BME280;28680;45.642;13.756;2023-03-13T13:07:34;101354.34;;;22.38;48.59
35647;BME280;28680;45.642;13.756;2023-03-13T13:12:29;101345.22;;;22.33;51.87
35647;BME280;28680;45.642;13.756;2023-03-13T13:18:30;101346.50;;;22.52;53.01
35647;BME280;28680;45.642;13.756;2023-03-13T13:23:38;101348.13;;;22.23;66.69
35647;BME280;28680;45.642;13.756;2023-03-13T13:28:59;101346.81;;;21.58;46.88
35647;BME280;28680;45.642;13.756;2023-03-13T13:39:40;101334.56;;;21.87;50.77
35647;BME280;28680;45.642;13.756;2023-03-13T13:43:02;101336.50;;;21.78;43.72
35647;BME280;28680;45.642;13.756;2023-03-13T13:45:37;101329.00;;;21.50;43.59
35647;BME280;28680;45.642;13.756;2023-03-13T13:56:46;101327.53;;;21.48;44.15
35647;BME280;28680;45.642;13.756;2023-03-13T13:59:47;101316.66;;;21.72;45.38
35647;BME280;28680;45.642;13.756;2023-03-13T14:02:33;101319.25;;;21.80;43.21
35647;BME280;28680;45.642;13.756;2023-03-13T14:05:14;101313.53;;;22.22;44.61
35647;BME280;28680;45.642;13.756;2023-03-13T14:13:16;101310.78;;;22.89;58.56
35647;BME280;28680;45.642;13.756;2023-03-13T14:15:55;101295.72;;;23.03;68.55
35647;BME280;28680;45.642;13.756;2023-03-13T14:18:25;101297.00;;;23.29;62.10
35647;BME280;28680;45.642;13.756;2023-03-13T14:21:06;101296.41;;;23.48;48.01
35647;BME280;28680;45.642;13.756;2023-03-13T14:23:44;101291.28;;;23.32;52.13
35647;BME280;28680;45.642;13.756;2023-03-13T14:26:31;101280.06;;;23.43;44.09
35647;BME280;28680;45.642;13.756;2023-03-13T14:29:02;101286.22;;;23.44;41.14
35647;BME280;28680;45.642;13.756;2023-03-13T14:31:30;101289.38;;;23.47;44.24
35647;BME280;28680;45.642;13.756;2023-03-13T14:34:07;101274.34;;;23.46;41.11
35647;BME280;28680;45.642;13.756;2023-03-13T14:42:19;101279.84;;;22.87;46.19
35647;BME280;28680;45.642;13.756;2023-03-13T14:44:46;101280.50;;;22.74;44.79
35647;BME280;28680;45.642;13.756;2023-03-13T14:47:28;101273.94;;;23.06;46.45
35647;BME280;28680;45.642;13.756;2023-03-13T14:50:07;101265.50;;;22.73;43.54
35647;BME280;28680;45.642;13.756;2023-03-13T14:52:36;101269.47;;;22.62;45.38
35647;BME280;28680;45.642;13.756;2023-03-13T14:55:26;101259.22;;;22.66;54.75
35647;BME280;28680;45.642;13.756;2023-03-13T15:00:33;101261.69;;;22.08;57.98
35647;BME280;28680;45.642;13.756;2023-03-13T15:09:14;101241.19;;;21.55;62.45
35647;BME280;28680;45.642;13.756;2023-03-13T15:11:51;101245.63;;;21.63;85.97
35647;BME280;28680;45.642;13.756;2023-03-13T15:14:42;101249.19;;;22.08;99.25
35647;BME280;28680;45.642;13.756;2023-03-13T15:17:24;101234.25;;;21.46;74.86
35647;BME280;28680;45.642;13.756;2023-03-13T15:19:56;101241.69;;;21.28;71.01
35647;BME280;28680;45.642;13.756;2023-03-13T15:22:36;101228.53;;;21.49;78.99
35647;BME280;28680;45.642;13.756;2023-03-13T15:25:13;101230.03;;;21.43;66.79
35647;BME280;28680;45.642;13.756;2023-03-13T15:27:39;101229.06;;;21.21;73.04
35647;BME280;28680;45.642;13.756;2023-03-13T15:30:06;101228.19;;;21.06;70.91